Time;durP1;ratioP1;P1;durP2;ratioP2;P2;SDS_P1;SDS_P2;PMS_P1;PMS_P2;Temp;Humidity;BMP_temperature;BMP_pressure;BME280_temperature;BME280_humidity;BME280_pressure;Samples;Min_cycle;Max_cycle;Signal;HPM_P1;HPM_P2
2023/12/26 00:03:13;;;;;;;4.90;2.70;;;;;;;8.32;91.60;98083.09;226384;1273;22571;-76
2023/12/26 00:08:18;;;;;;;4.80;2.90;;;;;;;8.34;91.50;98080.70;226696;1274;24352;-75
2023/12/26 00:13:20;;;;;;;4.30;2.70;;;;;;;8.37;91.49;98079.87;226519;1273;22576;-75
2023/12/26 00:18:22;;;;;;;6.00;3.00;;;;;;;8.36;91.39;98076.18;226489;1273;22539;-75
2023/12/26 00:23:24;;;;;;;5.10;3.00;;;;;;;8.36;91.05;98075.86;226391;1274;22540;-75
2023/12/26 00:28:26;;;;;;;6.10;2.90;;;;;;;8.36;91.02;98067.67;226472;1272;22642;-75
2023/12/26 00:33:28;;;;;;;5.30;2.90;;;;;;;8.34;91.03;98068.98;226525;1274;24224;-75
2023/12/26 00:38:31;;;;;;;4.70;3.30;;;;;;;8.31;91.05;98065.44;226409;1263;22548;-75
2023/12/26 00:43:33;;;;;;;5.50;3.10;;;;;;;8.32;91.10;98071.40;226441;1274;22553;-75
2023/12/26 00:48:36;;;;;;;4.70;3.00;;;;;;;8.32;91.11;98065.65;226406;1272;22686;-74
2023/12/26 00:53:38;;;;;;;4.50;2.80;;;;;;;8.30;90.95;98054.33;226468;1272;23137;-75
2023/12/26 00:58:40;;;;;;;4.10;2.60;;;;;;;8.27;90.84;98053.82;226378;1274;22559;-75
2023/12/26 01:03:42;;;;;;;4.50;2.60;;;;;;;8.22;90.65;98052.39;226402;1273;22537;-75
2023/12/26 01:08:44;;;;;;;4.20;3.00;;;;;;;8.16;90.95;98063.30;226408;1274;22534;-75
2023/12/26 01:13:46;;;;;;;4.00;2.40;;;;;;;8.15;90.85;98067.65;226406;1274;22557;-74
2023/12/26 01:18:48;;;;;;;5.00;2.30;;;;;;;8.17;90.83;98076.65;226475;1254;22558;-75
2023/12/26 01:23:52;;;;;;;4.20;2.30;;;;;;;8.22;90.72;98083.28;226492;1274;22559;-75
2023/12/26 01:28:55;;;;;;;4.30;2.20;;;;;;;8.26;90.55;98074.45;226478;1273;22610;-75
2023/12/26 01:33:57;;;;;;;3.70;1.90;;;;;;;8.31;90.38;98070.73;226507;1256;24349;-75
2023/12/26 01:39:00;;;;;;;2.20;1.50;;;;;;;8.34;90.33;98064.02;226378;1274;24265;-75
2023/12/26 01:44:03;;;;;;;2.50;1.50;;;;;;;8.38;90.23;98060.08;226488;1273;22608;-75
2023/12/26 01:49:05;;;;;;;3.90;1.70;;;;;;;8.38;90.07;98060.00;226473;1251;22555;-75
2023/12/26 01:54:09;;;;;;;2.00;1.50;;;;;;;8.39;89.82;98056.52;226364;1273;22557;-75
2023/12/26 01:59:11;;;;;;;3.20;1.50;;;;;;;8.38;89.93;98058.59;226365;1270;22531;-75
2023/12/26 02:04:14;;;;;;;3.30;1.90;;;;;;;8.39;89.82;98055.15;226548;1274;24627;-76
2023/12/26 02:09:16;;;;;;;2.70;1.80;;;;;;;8.39;89.84;98050.36;226470;1268;22734;-75
2023/12/26 02:14:19;;;;;;;3.80;1.70;;;;;;;8.36;89.54;98042.16;226361;1270;22650;-75
2023/12/26 02:19:21;;;;;;;2.60;1.40;;;;;;;8.29;89.81;98033.08;226698;1273;23053;-75
2023/12/26 02:24:24;;;;;;;4.20;1.70;;;;;;;8.21;89.50;98022.67;226391;1271;22784;-75
2023/12/26 02:29:29;;;;;;;2.50;1.50;;;;;;;8.15;89.43;98013.45;226415;1271;22958;-74
2023/12/26 02:34:31;;;;;;;2.20;1.70;;;;;;;8.07;89.60;98008.08;226382;1273;22572;-74
2023/12/26 02:39:34;;;;;;;2.80;1.80;;;;;;;8.03;89.61;98000.31;226460;1273;22560;-75
2023/12/26 02:44:36;;;;;;;5.60;2.20;;;;;;;8.01;89.74;98000.02;226378;1270;22555;-75
2023/12/26 02:49:38;;;;;;;3.30;1.80;;;;;;;8.04;89.82;97996.16;226524;1273;22931;-75
2023/12/26 02:54:41;;;;;;;2.10;1.70;;;;;;;8.09;89.80;97987.14;226525;1273;22692;-75
2023/12/26 02:59:43;;;;;;;2.00;1.50;;;;;;;8.15;89.84;97982.57;226353;1273;25355;-75
2023/12/26 03:04:46;;;;;;;2.70;1.60;;;;;;;8.19;89.76;97977.32;226534;1270;22585;-75
2023/12/26 03:09:48;;;;;;;2.30;1.50;;;;;;;8.24;89.79;97972.49;226574;1272;24314;-75
2023/12/26 03:14:50;;;;;;;3.90;1.70;;;;;;;8.28;89.77;97971.23;226509;1270;22599;-76
2023/12/26 03:19:52;;;;;;;2.10;1.70;;;;;;;8.32;89.57;97958.27;226474;1274;22628;-76
2023/12/26 03:24:54;;;;;;;2.30;1.70;;;;;;;8.35;89.39;97947.36;226478;1273;22641;-76
2023/12/26 03:29:56;;;;;;;2.10;1.40;;;;;;;8.36;89.28;97943.60;226489;1273;22562;-75
2023/12/26 03:34:59;;;;;;;2.90;1.70;;;;;;;8.35;89.11;97925.30;226494;1262;22555;-75
2023/12/26 03:40:01;;;;;;;2.40;1.50;;;;;;;8.33;88.99;97924.11;226551;1273;22959;-75
2023/12/26 03:45:04;;;;;;;1.60;1.30;;;;;;;8.34;89.07;97923.80;226565;1273;24733;-75
2023/12/26 03:50:07;;;;;;;2.20;1.40;;;;;;;8.37;88.71;97922.20;226477;1270;22528;-75
2023/12/26 03:55:11;;;;;;;1.90;1.40;;;;;;;8.37;88.49;97914.10;226558;1274;24290;-75
2023/12/26 04:00:13;;;;;;;2.30;1.30;;;;;;;8.39;88.46;97907.59;226471;1273;25605;-75
2023/12/26 04:05:17;;;;;;;1.50;1.00;;;;;;;8.40;88.10;97891.08;226493;1270;22557;-75
2023/12/26 04:10:19;;;;;;;1.10;0.90;;;;;;;8.44;87.81;97870.73;226480;1270;22890;-75
2023/12/26 04:15:22;;;;;;;1.40;1.10;;;;;;;8.46;87.75;97867.73;226450;1270;22591;-75
2023/12/26 04:20:24;;;;;;;1.80;1.20;;;;;;;8.45;87.54;97867.17;226531;1273;22547;-75
2023/12/26 04:25:26;;;;;;;1.10;1.00;;;;;;;8.43;87.33;97861.34;226421;1270;22528;-75
2023/12/26 04:30:28;;;;;;;1.10;0.90;;;;;;;8.40;87.27;97849.86;226304;1273;22609;-75
2023/12/26 04:35:31;;;;;;;1.00;0.90;;;;;;;8.38;87.31;97844.50;226337;1270;23105;-75
2023/12/26 04:40:33;;;;;;;1.80;1.00;;;;;;;8.36;87.19;97840.44;226397;1273;22550;-76
2023/12/26 04:45:38;;;;;;;1.90;1.30;;;;;;;8.33;87.04;97843.95;226299;1273;22641;-76
2023/12/26 04:50:40;;;;;;;1.10;1.00;;;;;;;8.32;87.25;97840.41;226547;1264;22554;-76
2023/12/26 04:55:42;;;;;;;1.30;1.10;;;;;;;8.33;86.92;97836.05;226453;1270;22543;-75
2023/12/26 05:00:44;;;;;;;2.90;1.10;;;;;;;8.34;86.96;97832.77;226379;1273;22583;-75
2023/12/26 05:05:47;;;;;;;1.50;1.10;;;;;;;8.35;87.03;97830.31;226458;1267;22605;-75
2023/12/26 05:10:49;;;;;;;3.60;1.70;;;;;;;8.38;86.95;97834.17;226534;1267;23018;-75
2023/12/26 05:15:51;;;;;;;1.60;1.10;;;;;;;8.40;87.12;97832.29;226502;1273;22589;-75
2023/12/26 05:20:53;;;;;;;1.20;0.90;;;;;;;8.41;86.80;97827.27;226575;1272;25301;-75
2023/12/26 05:25:58;;;;;;;1.10;1.00;;;;;;;8.43;86.92;97824.11;226556;1272;25491;-75
2023/12/26 05:31:12;;;;;;;2.00;1.10;;;;;;;8.46;86.80;97822.25;226413;1269;22564;-75
2023/12/26 05:36:14;;;;;;;2.20;1.10;;;;;;;8.48;86.86;97810.75;226535;1270;22533;-74
2023/12/26 05:41:17;;;;;;;2.10;1.10;;;;;;;8.48;86.77;97807.23;226598;1272;22551;-75
2023/12/26 05:46:20;;;;;;;1.50;1.00;;;;;;;8.50;86.75;97811.05;226391;1273;22537;-75
2023/12/26 05:51:23;;;;;;;2.20;1.10;;;;;;;8.53;86.77;97816.61;226547;1269;22547;-75
2023/12/26 05:56:25;;;;;;;1.70;1.40;;;;;;;8.57;86.71;97805.48;226691;1270;22547;-75
2023/12/26 06:01:28;;;;;;;2.80;1.40;;;;;;;8.60;86.47;97810.52;226561;1273;22544;-74
2023/12/26 06:06:30;;;;;;;1.50;1.30;;;;;;;8.62;86.65;97812.16;226560;1271;22544;-74
2023/12/26 06:11:32;;;;;;;1.10;1.00;;;;;;;8.65;86.29;97814.08;226534;1273;22537;-75
2023/12/26 06:16:34;;;;;;;1.50;1.20;;;;;;;8.66;86.06;97818.25;226333;1273;22554;-75
2023/12/26 06:21:36;;;;;;;1.60;1.10;;;;;;;8.65;86.07;97815.86;226330;1270;22541;-75
2023/12/26 06:26:40;;;;;;;1.90;1.30;;;;;;;8.63;86.28;97815.64;226591;1272;25277;-75
2023/12/26 06:31:42;;;;;;;2.20;1.00;;;;;;;8.64;86.32;97818.70;226549;1273;22580;-75
2023/12/26 06:36:45;;;;;;;2.60;1.30;;;;;;;8.66;85.99;97828.30;226349;1273;22910;-74
2023/12/26 06:41:47;;;;;;;1.10;0.90;;;;;;;8.65;85.92;97828.02;226390;1272;23037;-74
2023/12/26 06:46:49;;;;;;;1.50;1.30;;;;;;;8.67;86.17;97831.98;226565;1273;22657;-74
2023/12/26 06:51:51;;;;;;;1.40;1.00;;;;;;;8.68;85.89;97842.57;226483;1273;22544;-74
2023/12/26 06:56:54;;;;;;;1.70;1.20;;;;;;;8.69;85.61;97844.07;226514;1271;22541;-75
2023/12/26 07:01:56;;;;;;;1.50;1.00;;;;;;;8.70;85.74;97855.30;226459;1272;22599;-74
2023/12/26 07:06:58;;;;;;;1.70;1.00;;;;;;;8.75;85.65;97872.52;226566;1250;22562;-75
2023/12/26 07:12:00;;;;;;;2.20;1.20;;;;;;;8.81;85.70;97874.56;226593;1273;22693;-75
2023/12/26 07:17:04;;;;;;;1.60;0.90;;;;;;;8.90;85.14;97887.04;226507;1272;22546;-75
2023/12/26 07:22:06;;;;;;;2.80;1.00;;;;;;;8.96;85.17;97890.40;226538;1272;23620;-75
2023/12/26 07:27:08;;;;;;;1.60;0.90;;;;;;;9.01;85.37;97893.02;226575;1273;22549;-75
2023/12/26 07:32:11;;;;;;;1.70;1.00;;;;;;;9.04;85.05;97892.42;226591;1273;22593;-75
2023/12/26 07:37:13;;;;;;;1.00;0.90;;;;;;;9.07;85.17;97896.47;226511;1269;24304;-76
2023/12/26 07:42:15;;;;;;;1.50;0.80;;;;;;;9.15;85.04;97901.71;226573;1266;22547;-75
2023/12/26 07:47:18;;;;;;;1.10;0.90;;;;;;;9.24;84.91;97904.23;226559;1267;22578;-75
2023/12/26 07:52:20;;;;;;;2.10;1.00;;;;;;;9.32;84.67;97904.49;226529;1273;22879;-75
2023/12/26 07:57:22;;;;;;;1.00;0.90;;;;;;;9.36;84.44;97908.63;226555;1269;22713;-75
2023/12/26 08:02:24;;;;;;;1.80;0.90;;;;;;;9.42;84.45;97913.14;226587;1270;22571;-75
2023/12/26 08:07:27;;;;;;;1.60;1.20;;;;;;;9.45;84.44;97921.46;226505;1273;22564;-74
2023/12/26 08:12:29;;;;;;;1.40;0.90;;;;;;;9.50;84.09;97920.00;226451;1272;22553;-74
2023/12/26 08:17:32;;;;;;;0.90;0.60;;;;;;;9.54;84.18;97925.59;226552;1273;22667;-74
2023/12/26 08:22:34;;;;;;;1.00;0.90;;;;;;;9.58;83.76;97930.72;226581;1270;22533;-75
2023/12/26 08:27:37;;;;;;;1.90;1.40;;;;;;;9.58;83.73;97927.88;226608;1268;25372;-76
2023/12/26 08:32:39;;;;;;;1.60;1.00;;;;;;;9.58;83.73;97931.40;226586;1270;25354;-74
2023/12/26 08:37:41;;;;;;;1.70;1.30;;;;;;;9.59;83.70;97938.87;226560;1269;22542;-74
2023/12/26 08:42:44;;;;;;;1.90;1.10;;;;;;;9.62;83.49;97962.04;226554;1270;22543;-74
2023/12/26 08:47:48;;;;;;;1.80;1.40;;;;;;;9.65;83.41;97979.94;227093;1267;22551;-74
2023/12/26 08:52:51;;;;;;;1.70;1.10;;;;;;;9.64;83.25;97987.52;226516;1263;22551;-75
2023/12/26 08:57:53;;;;;;;1.80;1.30;;;;;;;9.66;83.24;97995.34;226609;1273;22540;-73
2023/12/26 09:02:55;;;;;;;2.70;1.10;;;;;;;9.68;82.81;97999.33;226556;1267;22669;-75
2023/12/26 09:08:07;;;;;;;2.60;1.20;;;;;;;9.68;82.69;98003.86;226460;1270;22540;-74
2023/12/26 09:13:10;;;;;;;2.10;1.40;;;;;;;9.68;82.72;98001.56;226433;1258;22547;-75
2023/12/26 09:18:12;;;;;;;1.20;0.90;;;;;;;9.69;82.64;98005.02;226492;1273;22619;-75
2023/12/26 09:23:14;;;;;;;2.20;1.20;;;;;;;9.68;82.70;98017.34;226478;1270;22536;-75
2023/12/26 09:28:16;;;;;;;2.10;1.30;;;;;;;9.68;82.56;98024.85;226432;1269;22536;-75
2023/12/26 09:33:18;;;;;;;1.80;1.20;;;;;;;9.71;82.80;98028.27;226513;1272;22886;-76
2023/12/26 09:38:21;;;;;;;2.00;1.20;;;;;;;9.75;82.54;98024.79;226583;1272;22558;-75
2023/12/26 09:43:23;;;;;;;2.80;1.30;;;;;;;9.81;82.81;98028.39;226461;1266;23006;-75
2023/12/26 09:48:25;;;;;;;2.10;1.60;;;;;;;9.87;82.55;98026.99;226552;1273;22547;-75
2023/12/26 09:53:30;;;;;;;1.70;1.30;;;;;;;9.94;82.26;98022.45;226480;1269;22567;-75
2023/12/26 09:58:35;;;;;;;1.50;1.20;;;;;;;9.99;82.29;98024.73;226525;1269;22587;-75
2023/12/26 10:03:38;;;;;;;1.60;0.90;;;;;;;10.06;81.93;98021.23;226461;1262;22560;-75
2023/12/26 10:08:42;;;;;;;2.20;1.40;;;;;;;10.10;81.87;98024.38;226299;1273;22643;-73
2023/12/26 10:13:53;;;;;;;2.20;1.20;;;;;;;10.12;81.89;98027.03;226536;1270;22540;-74
2023/12/26 10:18:55;;;;;;;1.70;1.40;;;;;;;10.15;81.34;98033.29;226506;1272;22830;-74
2023/12/26 10:23:58;;;;;;;1.80;1.40;;;;;;;10.16;81.21;98042.18;226435;1270;22554;-75
2023/12/26 10:29:00;;;;;;;2.10;1.40;;;;;;;10.17;81.05;98043.16;226460;1269;22543;-75
2023/12/26 10:34:17;;;;;;;2.20;1.70;;;;;;;10.17;80.83;98036.05;226571;1272;22589;-75
2023/12/26 10:39:19;;;;;;;2.00;1.50;;;;;;;10.20;80.56;98040.95;226574;1273;22541;-75
2023/12/26 10:44:25;;;;;;;2.30;1.70;;;;;;;10.25;80.52;98046.47;226529;1272;22547;-75
2023/12/26 10:49:28;;;;;;;1.90;1.60;;;;;;;10.29;80.62;98053.01;226426;1272;23710;-75
2023/12/26 10:54:37;;;;;;;3.50;1.80;;;;;;;10.31;80.22;98062.60;226490;1270;22554;-74
2023/12/26 10:59:39;;;;;;;2.40;1.70;;;;;;;10.31;79.92;98073.94;226544;1272;22549;-74
2023/12/26 11:04:45;;;;;;;1.90;1.30;;;;;;;10.28;80.32;98076.52;226504;1273;22537;-75
2023/12/26 11:09:47;;;;;;;3.00;1.70;;;;;;;10.27;79.92;98084.81;226493;1272;22544;-75
2023/12/26 11:14:50;;;;;;;3.10;1.70;;;;;;;10.25;80.10;98092.61;226505;1272;23356;-75
2023/12/26 11:19:52;;;;;;;1.70;1.40;;;;;;;10.23;79.82;98090.51;226439;1269;22551;-75
2023/12/26 11:24:54;;;;;;;1.80;1.40;;;;;;;10.20;79.80;98096.72;226174;1272;197012;-75
2023/12/26 11:29:57;;;;;;;4.10;1.80;;;;;;;10.17;79.74;98096.41;226493;1272;22527;-74
2023/12/26 11:35:00;;;;;;;4.20;2.20;;;;;;;10.15;79.41;98097.61;226464;1266;24285;-76
2023/12/26 11:40:03;;;;;;;4.60;3.10;;;;;;;10.13;79.48;98104.10;226513;1269;22948;-76
2023/12/26 11:45:05;;;;;;;3.90;2.20;;;;;;;10.14;79.40;98115.43;226582;1273;22559;-75
2023/12/26 11:50:08;;;;;;;2.00;1.10;;;;;;;10.15;79.55;98117.10;226512;1266;25332;-76
2023/12/26 11:55:10;;;;;;;3.10;1.30;;;;;;;10.20;79.68;98117.59;226407;1272;22544;-76
2023/12/26 12:00:13;;;;;;;2.10;1.30;;;;;;;10.25;79.47;98124.95;226395;1274;22585;-74
2023/12/26 12:05:15;;;;;;;1.90;1.40;;;;;;;10.29;79.34;98127.79;226530;1270;22532;-74
2023/12/26 12:10:17;;;;;;;2.00;1.20;;;;;;;10.29;78.98;98127.95;226531;1272;24234;-74
2023/12/26 12:15:19;;;;;;;2.50;1.30;;;;;;;10.27;78.67;98129.81;226573;1272;22710;-74
2023/12/26 12:20:21;;;;;;;1.90;1.20;;;;;;;10.23;78.66;98131.23;226489;1270;22548;-74
2023/12/26 12:25:23;;;;;;;1.90;1.20;;;;;;;10.20;78.56;98135.88;226513;1270;22543;-74
2023/12/26 12:30:25;;;;;;;3.30;1.60;;;;;;;10.19;78.84;98141.64;226460;1273;25281;-74
2023/12/26 12:35:28;;;;;;;1.70;1.30;;;;;;;10.16;78.61;98136.44;226490;1272;22551;-76
2023/12/26 12:40:30;;;;;;;1.90;1.40;;;;;;;10.12;78.62;98135.65;226526;1270;22536;-74
2023/12/26 12:45:34;;;;;;;2.90;1.70;;;;;;;10.09;78.30;98140.86;226320;1273;22604;-75
2023/12/26 12:50:36;;;;;;;3.80;2.00;;;;;;;10.06;78.43;98141.14;226502;1273;22551;-74
2023/12/26 12:55:40;;;;;;;3.30;2.10;;;;;;;10.04;78.44;98138.05;226387;1256;22573;-76
2023/12/26 13:00:43;;;;;;;3.20;1.80;;;;;;;10.02;78.43;98138.20;226459;1269;22583;-76
2023/12/26 13:05:45;;;;;;;3.50;2.10;;;;;;;9.99;78.48;98145.63;226448;1272;22582;-76
2023/12/26 13:10:48;;;;;;;3.20;1.90;;;;;;;9.97;78.58;98159.82;226413;1269;23024;-76
2023/12/26 13:15:50;;;;;;;3.10;2.10;;;;;;;9.95;78.71;98162.17;226478;1271;22542;-76
2023/12/26 13:20:52;;;;;;;3.10;1.40;;;;;;;9.94;78.54;98156.91;226428;1269;22554;-76
2023/12/26 13:25:54;;;;;;;3.50;1.90;;;;;;;9.93;78.76;98162.63;226387;1272;22996;-76
2023/12/26 13:30:57;;;;;;;2.40;1.60;;;;;;;9.91;78.74;98170.25;226396;1273;24238;-76
2023/12/26 13:36:00;;;;;;;2.50;1.80;;;;;;;9.91;78.84;98175.86;226393;1273;22539;-75
2023/12/26 13:41:03;;;;;;;3.80;1.50;;;;;;;9.91;78.95;98181.46;226514;1269;22543;-76
2023/12/26 13:46:05;;;;;;;2.40;1.50;;;;;;;9.94;78.97;98181.17;226461;1272;22635;-75
2023/12/26 13:51:07;;;;;;;2.10;1.20;;;;;;;9.93;78.56;98186.70;226512;1270;22521;-76
2023/12/26 13:56:09;;;;;;;3.80;1.00;;;;;;;9.93;78.61;98194.14;226480;1272;25268;-76
2023/12/26 14:01:11;;;;;;;2.40;1.40;;;;;;;9.91;78.72;98195.42;226412;1271;24257;-76
2023/12/26 14:06:14;;;;;;;1.90;1.20;;;;;;;9.88;78.86;98204.45;227181;1269;22556;-72
2023/12/26 14:11:17;;;;;;;1.80;1.30;;;;;;;9.83;78.65;98217.10;226401;1272;22554;-74
2023/12/26 14:16:21;;;;;;;1.80;1.30;;;;;;;9.79;78.82;98227.30;226414;1272;22532;-74
2023/12/26 14:21:24;;;;;;;2.30;1.30;;;;;;;9.75;78.69;98226.29;226570;1274;22560;-74
2023/12/26 14:26:28;;;;;;;3.20;1.40;;;;;;;9.69;78.65;98229.20;226498;1272;23012;-76
2023/12/26 14:31:31;;;;;;;2.10;1.60;;;;;;;9.65;78.56;98236.82;226476;1272;22538;-74
2023/12/26 14:36:33;;;;;;;2.50;1.60;;;;;;;9.60;78.63;98244.64;226530;1273;22633;-74
2023/12/26 14:41:37;;;;;;;1.60;1.30;;;;;;;9.56;78.91;98250.73;226441;1269;22544;-75
2023/12/26 14:46:39;;;;;;;1.60;1.20;;;;;;;9.52;78.82;98256.63;226361;1272;22574;-75
2023/12/26 14:51:41;;;;;;;1.30;1.00;;;;;;;9.50;79.09;98262.13;226495;1272;22670;-76
2023/12/26 14:56:44;;;;;;;3.30;1.50;;;;;;;9.48;79.24;98265.39;226414;1273;22567;-76
2023/12/26 15:01:46;;;;;;;2.60;1.50;;;;;;;9.48;79.07;98258.29;226498;1273;22523;-76
2023/12/26 15:06:48;;;;;;;3.90;2.00;;;;;;;9.48;79.21;98264.91;226544;1274;22646;-76
2023/12/26 15:11:50;;;;;;;6.20;2.70;;;;;;;9.49;79.27;98276.88;226523;1272;22567;-75
2023/12/26 15:16:54;;;;;;;4.20;2.60;;;;;;;9.49;79.27;98286.36;226440;1272;24236;-74
2023/12/26 15:21:56;;;;;;;3.80;2.90;;;;;;;9.49;79.09;98285.71;226377;1269;22550;-74
2023/12/26 15:26:58;;;;;;;4.00;2.90;;;;;;;9.47;79.18;98292.96;226483;1273;22560;-74
2023/12/26 15:32:01;;;;;;;3.80;2.40;;;;;;;9.45;79.27;98300.64;226407;1272;22527;-74
2023/12/26 15:37:03;;;;;;;3.30;2.40;;;;;;;9.43;79.14;98298.57;226565;1274;22527;-75
2023/12/26 15:42:07;;;;;;;3.60;2.20;;;;;;;9.41;79.33;98293.36;226427;1273;22535;-75
2023/12/26 15:47:13;;;;;;;3.20;1.90;;;;;;;9.38;79.16;98302.17;226436;1272;22535;-74
2023/12/26 15:52:15;;;;;;;3.00;1.90;;;;;;;9.37;79.29;98316.27;226491;1263;25261;-75
2023/12/26 15:57:17;;;;;;;3.00;1.90;;;;;;;9.37;79.42;98320.70;226459;1272;24580;-76
2023/12/26 16:02:19;;;;;;;3.80;2.10;;;;;;;9.36;79.38;98331.35;226562;1269;24748;-75
2023/12/26 16:07:22;;;;;;;4.40;2.60;;;;;;;9.37;79.38;98342.40;226445;1264;22537;-75
2023/12/26 16:12:24;;;;;;;5.40;2.60;;;;;;;9.38;79.26;98361.27;226385;1272;22547;-75
2023/12/26 16:17:27;;;;;;;4.50;2.30;;;;;;;9.37;79.34;98378.62;226393;1272;22547;-75
2023/12/26 16:22:29;;;;;;;5.60;2.10;;;;;;;9.30;79.90;98389.40;226451;1274;22524;-74
2023/12/26 16:27:35;;;;;;;6.10;2.80;;;;;;;9.15;80.08;98405.04;226414;1270;22564;-75
2023/12/26 16:32:38;;;;;;;5.00;2.60;;;;;;;9.01;80.70;98403.52;226517;1274;22702;-75
2023/12/26 16:37:40;;;;;;;5.90;2.70;;;;;;;8.89;81.02;98409.27;226458;1273;22565;-75
2023/12/26 16:42:43;;;;;;;4.80;2.80;;;;;;;8.78;81.23;98403.99;226386;1272;22548;-75
2023/12/26 16:47:45;;;;;;;6.60;3.70;;;;;;;8.69;81.42;98407.17;226462;1273;22531;-75
2023/12/26 16:52:47;;;;;;;4.30;2.90;;;;;;;8.61;81.65;98414.49;226466;1272;24609;-75
2023/12/26 16:57:51;;;;;;;4.60;3.40;;;;;;;8.57;82.01;98416.14;226302;1253;22564;-76
2023/12/26 17:02:55;;;;;;;4.50;2.80;;;;;;;8.49;82.21;98412.32;226543;1274;22535;-75
2023/12/26 17:07:58;;;;;;;5.20;2.80;;;;;;;8.38;82.29;98419.52;226848;1273;22551;-75
2023/12/26 17:13:00;;;;;;;4.10;2.40;;;;;;;8.31;82.26;98421.80;226575;1263;22548;-75
2023/12/26 17:18:03;;;;;;;5.40;3.60;;;;;;;8.25;82.31;98424.48;226517;1273;25252;-75
2023/12/26 17:23:05;;;;;;;4.70;3.20;;;;;;;8.13;82.12;98417.54;226405;1272;22693;-75
2023/12/26 17:28:09;;;;;;;3.70;2.60;;;;;;;8.01;82.44;98429.34;226431;1273;24729;-75
2023/12/26 17:33:13;;;;;;;6.00;2.60;;;;;;;7.90;82.67;98429.98;226459;1272;24396;-75
2023/12/26 17:38:15;;;;;;;4.30;2.50;;;;;;;7.80;82.93;98442.04;226406;1273;22641;-75
2023/12/26 17:43:18;;;;;;;4.80;2.30;;;;;;;7.71;82.98;98452.35;226480;1272;22549;-75
2023/12/26 17:48:23;;;;;;;4.80;2.20;;;;;;;7.62;83.24;98457.77;226352;1263;22540;-75
2023/12/26 17:53:25;;;;;;;3.30;2.00;;;;;;;7.55;83.21;98464.25;226464;1271;24228;-75
2023/12/26 17:58:31;;;;;;;4.00;2.30;;;;;;;7.45;83.31;98467.70;226436;1272;22548;-74
2023/12/26 18:03:34;;;;;;;4.20;1.90;;;;;;;7.36;83.43;98472.53;226395;1273;22533;-75
2023/12/26 18:08:42;;;;;;;1.80;1.50;;;;;;;7.34;83.44;98472.80;226443;1274;22578;-74
2023/12/26 18:13:44;;;;;;;3.00;1.80;;;;;;;7.30;83.51;98479.04;226814;1271;22536;-75
2023/12/26 18:18:46;;;;;;;3.00;2.00;;;;;;;7.25;83.22;98486.73;226543;1272;22546;-75
2023/12/26 18:23:49;;;;;;;3.10;1.70;;;;;;;7.21;83.20;98497.92;226398;1272;22557;-74
2023/12/26 18:28:53;;;;;;;2.20;1.60;;;;;;;7.17;83.37;98503.00;226516;1273;22552;-74
2023/12/26 18:33:56;;;;;;;3.40;1.90;;;;;;;7.12;83.52;98509.91;226394;1273;22543;-75
2023/12/26 18:39:03;;;;;;;4.70;2.60;;;;;;;7.12;83.51;98514.89;226430;1273;22553;-75
2023/12/26 18:44:08;;;;;;;6.80;4.30;;;;;;;7.15;83.66;98512.43;227228;1272;22542;-74
2023/12/26 18:49:11;;;;;;;8.70;4.70;;;;;;;7.20;83.66;98519.48;226517;1273;22562;-75
2023/12/26 18:54:14;;;;;;;10.60;5.40;;;;;;;7.26;83.79;98529.95;226514;1274;22557;-74
2023/12/26 18:59:17;;;;;;;8.80;4.40;;;;;;;7.33;83.88;98542.05;226447;1273;22551;-75
2023/12/26 19:04:21;;;;;;;3.20;2.20;;;;;;;7.40;83.48;98534.77;226420;1272;24215;-75
2023/12/26 19:09:27;;;;;;;2.70;1.80;;;;;;;7.50;83.79;98532.50;226439;1274;22622;-75
2023/12/26 19:14:30;;;;;;;3.70;2.60;;;;;;;7.61;83.70;98538.14;226646;1269;22556;-75
2023/12/26 19:19:33;;;;;;;5.50;2.90;;;;;;;7.70;83.44;98552.41;226497;1273;22539;-75
2023/12/26 19:24:38;;;;;;;4.70;3.10;;;;;;;7.71;83.49;98554.70;226539;1273;22575;-75
2023/12/26 19:29:40;;;;;;;7.00;3.40;;;;;;;7.69;83.84;98569.12;226480;1274;22544;-74
2023/12/26 19:34:43;;;;;;;3.60;2.50;;;;;;;7.65;83.70;98567.52;226481;1272;25509;-74
2023/12/26 19:39:45;;;;;;;3.80;2.20;;;;;;;7.61;84.02;98570.77;226385;1270;22571;-74
2023/12/26 19:44:47;;;;;;;4.60;2.20;;;;;;;7.58;83.71;98579.40;226478;1274;22568;-74
2023/12/26 19:49:54;;;;;;;4.10;2.30;;;;;;;7.54;84.09;98594.38;226414;1272;22528;-74
2023/12/26 19:54:56;;;;;;;4.00;2.70;;;;;;;7.51;84.33;98609.25;226375;1274;23559;-75
2023/12/26 20:00:00;;;;;;;3.60;2.10;;;;;;;7.45;84.51;98617.80;226440;1274;22547;-75
2023/12/26 20:05:03;;;;;;;5.60;2.60;;;;;;;7.37;84.80;98624.36;226395;1272;22609;-75
2023/12/26 20:10:05;;;;;;;2.50;1.80;;;;;;;7.26;84.90;98638.23;226465;1273;22653;-73
2023/12/26 20:15:09;;;;;;;2.90;1.90;;;;;;;7.00;84.33;98637.45;226365;1274;22533;-74
2023/12/26 20:20:11;;;;;;;3.70;2.00;;;;;;;6.70;84.97;98652.41;226413;1251;25276;-75
2023/12/26 20:25:15;;;;;;;3.40;1.90;;;;;;;6.49;85.36;98662.46;226383;1273;22547;-73
2023/12/26 20:30:20;;;;;;;3.00;1.80;;;;;;;6.32;85.60;98639.19;226422;1274;22546;-77
2023/12/26 20:35:23;;;;;;;6.40;2.10;;;;;;;6.23;85.67;98648.77;226517;1274;22545;-74
2023/12/26 20:40:25;;;;;;;3.40;1.70;;;;;;;6.19;86.06;98658.84;226402;1267;22642;-74
2023/12/26 20:45:29;;;;;;;3.90;2.10;;;;;;;6.18;86.23;98659.29;226437;1273;22544;-74
2023/12/26 20:50:31;;;;;;;3.00;2.10;;;;;;;6.17;86.18;98660.07;226514;1273;22561;-75
2023/12/26 20:55:36;;;;;;;3.20;1.90;;;;;;;6.09;86.24;98664.31;226495;1273;22673;-74
2023/12/26 21:00:46;;;;;;;4.70;2.60;;;;;;;5.97;86.44;98674.63;227154;1272;25326;-74
2023/12/26 21:05:56;;;;;;;4.70;2.30;;;;;;;5.90;86.48;98683.79;226558;1273;22547;-76
2023/12/26 21:11:00;;;;;;;4.10;2.40;;;;;;;5.84;86.39;98687.71;226365;1273;22916;-75
2023/12/26 21:16:02;;;;;;;4.80;2.60;;;;;;;5.75;86.73;98686.90;226362;1270;22559;-75
2023/12/26 21:21:08;;;;;;;3.80;2.70;;;;;;;5.65;86.75;98687.85;226525;1273;24271;-76
2023/12/26 21:26:24;;;;;;;6.20;3.60;;;;;;;5.58;87.03;98679.35;226437;1273;22559;-75
2023/12/26 21:31:29;;;;;;;7.10;3.70;;;;;;;5.49;86.98;98694.25;226379;1269;22547;-75
2023/12/26 21:36:37;;;;;;;4.90;3.10;;;;;;;5.45;87.22;98691.42;226459;1273;22564;-75
2023/12/26 21:41:45;;;;;;;8.00;5.00;;;;;;;5.38;87.12;98696.88;226305;1273;23474;-74
2023/12/26 21:46:50;;;;;;;7.80;4.60;;;;;;;5.30;87.49;98706.20;226509;1273;25393;-76
2023/12/26 21:51:53;;;;;;;6.80;3.90;;;;;;;5.22;87.72;98718.39;226452;1273;22580;-74
2023/12/26 21:56:56;;;;;;;4.60;3.40;;;;;;;5.13;87.76;98730.98;226476;1270;22561;-75
2023/12/26 22:01:59;;;;;;;6.30;3.10;;;;;;;5.07;87.78;98737.07;226418;1269;22535;-75
2023/12/26 22:07:03;;;;;;;5.70;2.90;;;;;;;5.01;88.33;98738.16;226395;1273;22546;-75
2023/12/26 22:12:06;;;;;;;5.60;3.60;;;;;;;4.98;88.33;98745.30;226446;1273;22594;-75
2023/12/26 22:17:13;;;;;;;7.20;3.60;;;;;;;4.91;88.16;98754.88;226410;1270;22581;-76
2023/12/26 22:22:16;;;;;;;7.70;3.80;;;;;;;4.86;88.48;98759.17;226433;1274;23852;-76
2023/12/26 22:27:21;;;;;;;5.00;3.30;;;;;;;4.81;88.70;98769.47;226408;1273;22540;-75
2023/12/26 22:32:24;;;;;;;5.20;3.70;;;;;;;4.74;88.25;98776.45;226487;1273;22531;-76
2023/12/26 22:37:30;;;;;;;6.70;3.30;;;;;;;4.68;88.46;98781.65;226391;1274;22567;-76
2023/12/26 22:42:32;;;;;;;4.90;3.20;;;;;;;4.61;88.45;98788.86;226468;1270;22540;-76
2023/12/26 22:47:34;;;;;;;7.80;3.80;;;;;;;4.57;88.39;98786.48;226448;1270;23046;-76
2023/12/26 22:52:37;;;;;;;6.90;4.10;;;;;;;4.52;88.65;98784.72;226401;1274;22541;-75
2023/12/26 22:57:39;;;;;;;5.30;3.40;;;;;;;4.46;88.11;98780.58;226447;1274;22584;-74
2023/12/26 23:02:41;;;;;;;6.80;4.00;;;;;;;4.42;88.27;98788.91;226471;1269;22548;-75
2023/12/26 23:07:43;;;;;;;6.30;4.20;;;;;;;4.38;88.21;98787.68;226421;1270;22578;-75
2023/12/26 23:12:45;;;;;;;11.40;4.70;;;;;;;4.34;88.28;98786.83;226531;1274;22544;-75
2023/12/26 23:17:48;;;;;;;7.60;3.60;;;;;;;4.28;88.30;98792.14;226586;1274;22552;-75
2023/12/26 23:22:50;;;;;;;8.60;4.10;;;;;;;4.26;88.57;98785.22;226426;1270;22544;-75
2023/12/26 23:27:52;;;;;;;6.90;4.00;;;;;;;4.28;88.37;98791.68;226480;1274;77583;-76
2023/12/26 23:32:54;;;;;;;6.10;2.70;;;;;;;4.28;88.23;98801.79;226536;1270;22552;-76
2023/12/26 23:37:57;;;;;;;5.00;2.70;;;;;;;4.30;87.92;98798.40;226562;1271;22559;-76
2023/12/26 23:42:59;;;;;;;5.10;2.30;;;;;;;4.35;88.31;98803.61;226525;1273;22548;-75